createdAt,value
2017-12-20T00:00:29.783Z,74.65
2017-12-20T00:02:58.074Z,70.35
2017-12-20T00:05:27.154Z,73.40
2017-12-20T00:07:54.642Z,76.65
2017-12-20T00:10:23.206Z,70.70
2017-12-20T00:12:52.382Z,69.70
2017-12-20T00:15:20.751Z,79.15
2017-12-20T00:17:48.249Z,67.60
2017-12-20T00:20:17.118Z,66.65
2017-12-20T00:22:45.984Z,79.50
2017-12-20T00:25:17.610Z,76.53
2017-12-20T00:27:46.027Z,78.22
2017-12-20T00:30:14.881Z,71.87
2017-12-20T00:32:42.401Z,77.62
2017-12-20T00:35:09.883Z,79.35
2017-12-20T00:37:37.903Z,78.37
2017-12-20T00:40:07.114Z,69.35
2017-12-20T00:42:36.264Z,63.67
2017-12-20T00:45:03.750Z,64.25
2017-12-20T00:47:31.246Z,71.82
2017-12-20T00:50:01.334Z,67.62
2017-12-20T00:52:30.236Z,62.47
2017-12-20T00:54:58.658Z,71.35
2017-12-20T00:57:26.156Z,77.05
2017-12-20T00:59:54.750Z,71.97
2017-12-20T01:02:23.182Z,68.95
2017-12-20T01:04:51.020Z,88.00
2017-12-20T01:07:20.159Z,74.37
2017-12-20T01:09:47.659Z,62.67
2017-12-20T01:12:15.888Z,58.45
2017-12-20T01:14:44.165Z,66.82
2017-12-20T01:17:11.690Z,77.22
2017-12-20T01:19:41.058Z,65.85
2017-12-20T01:22:09.315Z,71.55
2017-12-20T01:24:39.806Z,73.68
2017-12-20T01:27:08.071Z,78.50
2017-12-20T01:29:36.830Z,69.00
2017-12-20T01:32:05.138Z,72.22
2017-12-20T01:34:32.970Z,79.35
2017-12-20T01:37:01.842Z,82.72
2017-12-20T01:39:29.351Z,80.72
2017-12-20T01:41:56.821Z,91.22
2017-12-20T01:44:24.322Z,92.70
2017-12-20T01:46:52.615Z,79.50
2017-12-20T01:49:20.105Z,86.72
2017-12-20T01:51:48.378Z,80.00
2017-12-20T01:54:18.338Z,83.22
2017-12-20T01:56:46.054Z,94.32
2017-12-20T01:59:14.468Z,79.07
2017-12-20T02:01:41.975Z,84.85
2017-12-20T02:04:09.735Z,98.93
2017-12-20T02:06:37.227Z,74.72
2017-12-20T02:09:06.214Z,85.07
2017-12-20T02:11:35.410Z,88.55
2017-12-20T02:14:04.275Z,78.60
2017-12-20T02:16:32.538Z,88.43
2017-12-20T02:19:00.958Z,79.07
2017-12-20T02:21:29.400Z,81.05
2017-12-20T02:23:57.846Z,86.53
2017-12-20T02:26:25.326Z,78.32
2017-12-20T02:28:54.213Z,67.37
2017-12-20T02:31:22.667Z,60.85
2017-12-20T02:33:51.688Z,69.90
2017-12-20T02:36:20.314Z,72.80
2017-12-20T02:38:49.230Z,58.65
2017-12-20T02:41:18.326Z,68.95
2017-12-20T02:43:49.942Z,58.80
2017-12-20T02:46:18.704Z,57.35
2017-12-20T02:48:46.200Z,67.78
2017-12-20T02:51:13.706Z,77.95
2017-12-20T02:53:41.193Z,64.05
2017-12-20T02:56:08.676Z,70.28
2017-12-20T02:58:36.694Z,71.45
2017-12-20T03:01:05.319Z,67.03
2017-12-20T03:03:33.798Z,68.87
2017-12-20T03:06:01.298Z,75.75
2017-12-20T03:08:29.554Z,62.28
2017-12-20T03:10:57.038Z,79.53
2017-12-20T03:13:24.534Z,67.87
2017-12-20T03:15:52.017Z,68.70
2017-12-20T03:18:19.514Z,80.45
2017-12-20T03:20:47.790Z,65.43
2017-12-20T03:23:16.050Z,66.65
2017-12-20T03:25:43.766Z,60.00
2017-12-20T03:28:12.059Z,58.95
2017-12-20T03:30:39.551Z,66.55
2017-12-20T03:33:07.044Z,56.72
2017-12-20T03:35:34.562Z,60.05
2017-12-20T03:38:02.400Z,57.20
2017-12-20T03:40:29.878Z,56.20
2017-12-20T03:42:57.382Z,62.88
2017-12-20T03:45:25.395Z,53.22
2017-12-20T03:47:53.245Z,61.92
2017-12-20T03:50:20.746Z,61.17
2017-12-20T03:52:49.154Z,53.83
2017-12-20T03:55:16.683Z,60.08
2017-12-20T03:57:44.191Z,63.08
2017-12-20T04:00:11.671Z,62.20
2017-12-20T04:02:39.154Z,56.95
2017-12-20T04:05:07.895Z,51.10
2017-12-20T04:07:35.762Z,55.20
2017-12-20T04:10:04.160Z,50.25
2017-12-20T04:12:31.666Z,49.35
2017-12-20T04:14:59.472Z,58.85
2017-12-20T04:17:26.954Z,54.80
2017-12-20T04:19:54.444Z,60.12
2017-12-20T04:22:23.048Z,52.08
2017-12-20T04:24:50.546Z,65.10
2017-12-20T04:27:18.046Z,55.92
2017-12-20T04:29:45.536Z,62.22
2017-12-20T04:32:13.027Z,56.85
2017-12-20T04:34:40.666Z,60.17
2017-12-20T04:37:08.783Z,51.45
2017-12-20T04:39:37.174Z,53.80
2017-12-20T04:42:05.623Z,69.22
2017-12-20T04:44:35.040Z,62.08
2017-12-20T04:47:03.894Z,52.42
2017-12-20T04:49:32.222Z,57.15
2017-12-20T04:52:01.802Z,55.95
2017-12-20T04:54:30.688Z,51.60
2017-12-20T04:56:59.112Z,57.25
2017-12-20T04:59:27.414Z,54.33
2017-12-20T05:01:54.889Z,50.60
2017-12-20T05:04:23.658Z,52.25
2017-12-20T05:06:51.149Z,49.63
2017-12-20T05:09:21.025Z,54.78
2017-12-20T05:11:49.040Z,52.05
2017-12-20T05:14:16.527Z,48.95
2017-12-20T05:16:44.006Z,52.15
2017-12-20T05:19:11.798Z,54.80
2017-12-20T05:21:39.513Z,59.65
2017-12-20T05:24:07.231Z,63.65
2017-12-20T05:26:35.518Z,74.80
2017-12-20T05:29:03.886Z,58.87
2017-12-20T05:31:32.136Z,80.40
2017-12-20T05:34:00.434Z,66.20
2017-12-20T05:36:29.613Z,64.50
2017-12-20T05:38:57.109Z,72.43
2017-12-20T05:41:26.727Z,81.28
2017-12-20T05:43:55.377Z,79.82
2017-12-20T05:46:24.862Z,69.82
2017-12-20T05:48:53.166Z,77.10
2017-12-20T05:51:20.654Z,75.60
2017-12-20T05:53:49.068Z,82.97
2017-12-20T05:56:16.579Z,78.05
2017-12-20T05:58:47.098Z,68.78
2017-12-20T06:01:14.927Z,85.70
2017-12-20T06:03:43.850Z,77.30
2017-12-20T06:06:12.186Z,70.60
2017-12-20T06:08:41.226Z,81.95
2017-12-20T06:11:10.667Z,79.12
2017-12-20T06:13:40.339Z,73.72
2017-12-20T06:16:09.342Z,82.28
2017-12-20T06:18:38.555Z,69.32
2017-12-20T06:21:06.831Z,82.90
2017-12-20T06:23:39.138Z,76.82
2017-12-20T06:26:08.115Z,86.97
2017-12-20T06:28:38.922Z,78.20
2017-12-20T06:31:06.646Z,78.55
2017-12-20T06:33:35.458Z,77.72
2017-12-20T06:36:04.229Z,85.57
2017-12-20T06:38:32.214Z,84.55
2017-12-20T06:41:00.694Z,92.15
2017-12-20T06:43:29.606Z,95.90
2017-12-20T06:45:57.921Z,77.65
2017-12-20T06:48:25.760Z,82.20
2017-12-20T06:50:53.858Z,75.80
2017-12-20T06:53:21.338Z,81.20
2017-12-20T06:55:51.204Z,72.18
2017-12-20T06:58:20.146Z,74.75
2017-12-20T07:00:49.390Z,66.65
2017-12-20T07:03:16.882Z,73.43
2017-12-20T07:05:44.378Z,58.85
2017-12-20T07:08:13.070Z,60.72
2017-12-20T07:10:41.490Z,56.03
2017-12-20T07:13:09.554Z,67.35
2017-12-20T07:15:37.038Z,65.12
2017-12-20T07:18:06.052Z,64.60
2017-12-20T07:20:34.530Z,69.55
2017-12-20T07:23:03.526Z,57.85
2017-12-20T07:25:32.543Z,70.35
2017-12-20T07:28:00.294Z,64.07
2017-12-20T07:30:27.784Z,55.83
2017-12-20T07:32:55.258Z,61.33
2017-12-20T07:35:26.718Z,64.40
2017-12-20T07:37:55.258Z,65.68
2017-12-20T07:40:22.758Z,61.30
2017-12-20T07:42:50.264Z,53.70
2017-12-20T07:45:17.756Z,57.72
2017-12-20T07:47:46.983Z,66.95
2017-12-20T07:50:15.558Z,66.40
2017-12-20T07:52:43.050Z,60.90
2017-12-20T07:55:10.539Z,65.93
2017-12-20T07:57:39.810Z,58.10
2017-12-20T08:00:09.400Z,61.28
2017-12-20T08:02:38.195Z,59.00
2017-12-20T08:05:08.078Z,47.67
2017-12-20T08:07:35.955Z,52.47
2017-12-20T08:10:03.454Z,58.08
2017-12-20T08:12:31.307Z,68.68
2017-12-20T08:15:00.376Z,66.03
2017-12-20T08:17:30.272Z,65.53
2017-12-20T08:19:57.826Z,61.58
2017-12-20T08:22:25.893Z,60.90
2017-12-20T08:24:55.403Z,74.40
2017-12-20T08:27:22.886Z,56.90
2017-12-20T08:29:50.726Z,63.42
2017-12-20T08:32:18.226Z,58.30
2017-12-20T08:34:48.497Z,76.55
2017-12-20T08:37:15.986Z,76.75
2017-12-20T08:39:46.558Z,80.47
2017-12-20T08:42:14.042Z,76.78
2017-12-20T08:44:43.568Z,62.92
2017-12-20T08:47:11.224Z,76.40
2017-12-20T08:49:40.410Z,75.05
2017-12-20T08:52:08.671Z,74.75
2017-12-20T08:54:36.686Z,67.68
2017-12-20T08:57:04.948Z,65.30
2017-12-20T08:59:32.589Z,62.80
2017-12-20T09:02:00.092Z,67.70
2017-12-20T09:04:27.592Z,67.00
2017-12-20T09:06:55.886Z,75.05
2017-12-20T09:09:23.390Z,68.07
2017-12-20T09:11:52.195Z,80.35
2017-12-20T09:14:20.455Z,84.82
2017-12-20T09:16:49.316Z,72.80
2017-12-20T09:19:17.535Z,77.80
2017-12-20T09:21:45.011Z,81.55
2017-12-20T09:24:13.300Z,88.03
2017-12-20T09:26:42.743Z,71.90
2017-12-20T09:29:10.255Z,81.93
2017-12-20T09:31:38.449Z,84.13
2017-12-20T09:34:07.129Z,94.15
2017-12-20T09:36:35.822Z,70.60
2017-12-20T09:39:04.345Z,78.22
2017-12-20T09:41:32.048Z,62.90
2017-12-20T09:43:59.538Z,74.45
2017-12-20T09:46:28.908Z,69.37
2017-12-20T09:48:57.017Z,75.40
2017-12-20T09:51:25.288Z,75.87
2017-12-20T09:53:53.996Z,86.87
2017-12-20T09:56:23.176Z,86.40
2017-12-20T09:58:51.583Z,87.93
2017-12-20T10:01:19.472Z,75.22
2017-12-20T10:03:48.354Z,83.62
2017-12-20T10:06:16.592Z,80.50
2017-12-20T10:08:44.346Z,71.90
2017-12-20T10:11:12.547Z,82.05
2017-12-20T10:13:41.554Z,81.60
2017-12-20T10:16:10.599Z,77.20
2017-12-20T10:18:39.181Z,82.88
2017-12-20T10:21:09.650Z,74.10
2017-12-20T10:23:37.234Z,82.43
2017-12-20T10:26:08.318Z,65.93
2017-12-20T10:28:35.802Z,65.55
2017-12-20T10:31:04.747Z,49.65
2017-12-20T10:33:33.054Z,67.90
2017-12-20T10:36:00.551Z,70.00
2017-12-20T10:38:28.219Z,66.57
2017-12-20T10:40:55.932Z,61.90
2017-12-20T10:43:23.415Z,77.78
2017-12-20T10:45:51.852Z,91.87
2017-12-20T10:48:20.614Z,62.58
2017-12-20T10:50:50.177Z,55.38
2017-12-20T10:53:17.899Z,72.53
2017-12-20T10:55:47.564Z,69.80
2017-12-20T10:58:15.478Z,44.50
2017-12-20T11:00:43.770Z,57.35
2017-12-20T11:03:11.256Z,51.95
2017-12-20T11:05:39.950Z,51.58
2017-12-20T11:08:08.055Z,43.67
2017-12-20T11:10:36.685Z,49.72
2017-12-20T11:13:04.166Z,48.13
2017-12-20T11:15:33.799Z,39.47
2017-12-20T11:18:01.298Z,35.42
2017-12-20T11:20:29.422Z,40.08
2017-12-20T11:22:56.943Z,51.50
2017-12-20T11:25:24.425Z,38.88
2017-12-20T11:27:51.913Z,42.92
2017-12-20T11:30:20.269Z,41.78
2017-12-20T11:32:47.754Z,31.67
2017-12-20T11:35:16.014Z,31.10
2017-12-20T11:37:43.531Z,34.20
2017-12-20T11:40:11.014Z,34.33
2017-12-20T11:42:39.676Z,33.70
2017-12-20T11:45:07.179Z,36.92
2017-12-20T11:47:34.662Z,39.08
2017-12-20T11:50:02.916Z,38.38
2017-12-20T11:52:30.764Z,36.90
2017-12-20T11:54:58.523Z,27.17
2017-12-20T11:57:26.689Z,30.83
2017-12-20T11:59:54.206Z,28.48
2017-12-20T12:02:22.460Z,26.98
2017-12-20T12:04:49.946Z,24.50
2017-12-20T12:07:17.466Z,24.73
2017-12-20T12:09:44.955Z,29.55
2017-12-20T12:12:13.217Z,25.75
2017-12-20T12:14:44.630Z,20.05
2017-12-20T12:17:13.352Z,17.10
2017-12-20T12:19:40.838Z,15.45
2017-12-20T12:22:08.403Z,16.08
2017-12-20T12:24:35.854Z,16.23
2017-12-20T12:27:03.347Z,14.52
2017-12-20T12:29:30.851Z,16.75
2017-12-20T12:31:59.120Z,19.80
2017-12-20T12:34:27.514Z,18.52
2017-12-20T12:36:55.814Z,13.90
2017-12-20T12:39:23.303Z,17.05
2017-12-20T12:41:50.782Z,18.33
2017-12-20T12:44:18.279Z,24.50
2017-12-20T12:46:45.769Z,17.30
2017-12-20T12:49:13.255Z,16.33
2017-12-20T12:51:40.775Z,17.02
2017-12-20T12:54:08.262Z,16.05
2017-12-20T12:56:35.747Z,16.45
2017-12-20T12:59:04.023Z,15.98
2017-12-20T13:01:32.345Z,14.95
2017-12-20T13:03:59.858Z,15.88
2017-12-20T13:06:28.618Z,19.02
2017-12-20T13:08:56.110Z,19.92
2017-12-20T13:11:24.375Z,15.73
2017-12-20T13:13:51.886Z,19.87
2017-12-20T13:16:20.250Z,22.27
2017-12-20T13:18:47.746Z,20.85
2017-12-20T13:21:16.026Z,21.85
2017-12-20T13:23:44.071Z,24.42
2017-12-20T13:26:11.558Z,20.52
2017-12-20T13:28:39.068Z,20.88
2017-12-20T13:31:09.270Z,21.92
2017-12-20T13:33:37.672Z,24.95
2017-12-20T13:36:05.198Z,18.52
2017-12-20T13:38:32.707Z,18.52
2017-12-20T13:41:00.194Z,18.30
2017-12-20T13:43:27.698Z,18.20
2017-12-20T13:45:55.195Z,19.30
2017-12-20T13:48:23.605Z,18.20
2017-12-20T13:50:51.138Z,17.27
2017-12-20T13:53:18.627Z,20.20
2017-12-20T13:55:46.175Z,18.70
2017-12-20T13:58:13.682Z,19.95
2017-12-20T14:00:41.170Z,19.30
2017-12-20T14:03:08.663Z,18.87
2017-12-20T14:05:36.627Z,19.30
2017-12-20T14:08:04.119Z,21.40
2017-12-20T14:10:31.618Z,19.83
2017-12-20T14:13:00.717Z,18.85
2017-12-20T14:15:28.202Z,22.75
2017-12-20T14:17:57.835Z,16.62
2017-12-20T14:20:25.373Z,20.40
2017-12-20T14:22:52.870Z,18.98
2017-12-20T14:25:20.353Z,21.70
2017-12-20T14:27:47.854Z,23.92
2017-12-20T14:30:16.115Z,21.25
2017-12-20T14:32:43.607Z,19.98
2017-12-20T14:35:11.886Z,21.15
2017-12-20T14:37:39.381Z,22.60
2017-12-20T14:40:06.866Z,18.75
2017-12-20T14:42:34.374Z,21.92
2017-12-20T14:45:01.870Z,19.25
2017-12-20T14:47:30.003Z,19.80
2017-12-20T14:49:57.523Z,16.62
2017-12-20T14:52:25.815Z,20.27
2017-12-20T14:54:54.072Z,18.05
2017-12-20T14:57:21.618Z,18.33
2017-12-20T14:59:49.106Z,18.08
2017-12-20T15:02:17.428Z,17.00
2017-12-20T15:04:44.946Z,15.48
2017-12-20T15:07:13.479Z,17.20
2017-12-20T15:09:41.004Z,21.95
2017-12-20T15:12:08.527Z,19.23
2017-12-20T15:14:36.238Z,21.17
2017-12-20T15:17:04.370Z,19.02
2017-12-20T15:19:31.906Z,17.15
2017-12-20T15:21:59.398Z,18.75
2017-12-20T15:24:27.650Z,19.55
2017-12-20T15:26:55.605Z,17.50
2017-12-20T15:29:23.090Z,16.00
2017-12-20T15:31:50.574Z,18.55
2017-12-20T15:34:21.122Z,20.10
2017-12-20T15:36:48.614Z,16.42
2017-12-20T15:39:16.120Z,17.90
2017-12-20T15:41:45.003Z,18.35
2017-12-20T15:44:13.431Z,18.48
2017-12-20T15:46:41.718Z,24.42
2017-12-20T15:49:09.230Z,21.42
2017-12-20T15:51:36.716Z,16.80
2017-12-20T15:54:04.214Z,16.10
2017-12-20T15:56:33.023Z,15.85
2017-12-20T15:59:01.278Z,18.48
2017-12-20T16:01:28.770Z,16.02
2017-12-20T16:03:57.054Z,19.50
2017-12-20T16:06:25.274Z,17.83
2017-12-20T16:08:52.766Z,20.30
2017-12-20T16:11:21.042Z,21.02
2017-12-20T16:13:49.298Z,17.20
2017-12-20T16:16:16.786Z,23.15
2017-12-20T16:18:45.078Z,21.73
2017-12-20T16:21:12.555Z,20.02
2017-12-20T16:23:40.113Z,18.77
2017-12-20T16:26:08.374Z,19.65
2017-12-20T16:28:35.863Z,20.98
2017-12-20T16:31:03.343Z,18.77
2017-12-20T16:33:31.594Z,23.33
2017-12-20T16:35:59.078Z,23.00
2017-12-20T16:38:26.590Z,23.17
2017-12-20T16:40:54.114Z,26.65
2017-12-20T16:43:22.371Z,22.85
2017-12-20T16:45:49.862Z,22.65
2017-12-20T16:48:18.127Z,25.23
2017-12-20T16:50:46.391Z,24.87
2017-12-20T16:53:13.878Z,28.23
2017-12-20T16:55:42.310Z,29.20
2017-12-20T16:58:11.112Z,24.95
2017-12-20T17:00:39.674Z,31.65
2017-12-20T17:03:08.773Z,28.75
2017-12-20T17:05:36.637Z,32.90
2017-12-20T17:08:04.126Z,31.92
2017-12-20T17:10:31.651Z,38.13
2017-12-20T17:12:59.135Z,30.70
2017-12-20T17:15:26.626Z,35.38
2017-12-20T17:17:54.898Z,37.97
2017-12-20T17:20:23.624Z,31.45
2017-12-20T17:22:53.482Z,34.35
2017-12-20T17:25:21.178Z,37.78
2017-12-20T17:27:48.694Z,37.83
2017-12-20T17:30:16.543Z,30.55
2017-12-20T17:32:44.903Z,33.42
2017-12-20T17:35:12.394Z,29.25
2017-12-20T17:37:39.886Z,29.25
2017-12-20T17:40:08.150Z,25.67
2017-12-20T17:42:36.962Z,25.20
2017-12-20T17:45:04.453Z,25.33
2017-12-20T17:47:31.959Z,26.87
2017-12-20T17:50:00.210Z,28.58
2017-12-20T17:52:27.758Z,26.52
2017-12-20T17:54:57.166Z,20.48
2017-12-20T17:57:25.566Z,26.70
2017-12-20T17:59:53.064Z,24.87
2017-12-20T18:02:20.582Z,28.70
2017-12-20T18:04:48.078Z,29.05
2017-12-20T18:07:15.570Z,27.48
2017-12-20T18:09:43.082Z,29.58
2017-12-20T18:12:10.590Z,32.05
2017-12-20T18:14:38.074Z,33.83
2017-12-20T18:17:05.606Z,34.05
2017-12-20T18:19:34.405Z,29.17
2017-12-20T18:22:01.902Z,29.23
2017-12-20T18:24:30.178Z,26.50
2017-12-20T18:26:57.668Z,32.50
2017-12-20T18:29:25.154Z,28.05
2017-12-20T18:31:53.598Z,35.05
2017-12-20T18:34:21.110Z,33.40
2017-12-20T18:36:48.602Z,31.50
2017-12-20T18:39:16.121Z,34.25
2017-12-20T18:41:44.495Z,35.75
2017-12-20T18:44:11.987Z,35.50
2017-12-20T18:46:40.260Z,32.63
2017-12-20T18:49:08.522Z,30.20
2017-12-20T18:51:36.010Z,32.33
2017-12-20T18:54:04.316Z,30.20
2017-12-20T18:56:31.807Z,31.02
2017-12-20T18:58:59.298Z,32.20
2017-12-20T19:01:27.581Z,36.70
2017-12-20T19:03:55.100Z,38.33
2017-12-20T19:06:24.798Z,32.85
2017-12-20T19:08:52.314Z,30.50
2017-12-20T19:11:19.810Z,37.05
2017-12-20T19:13:47.302Z,35.03
2017-12-20T19:16:14.890Z,33.08
2017-12-20T19:18:42.384Z,31.73
2017-12-20T19:21:09.878Z,26.60
2017-12-20T19:23:37.418Z,28.30
2017-12-20T19:26:04.908Z,32.53
2017-12-20T19:28:33.786Z,28.80
2017-12-20T19:31:01.308Z,29.50
2017-12-20T19:33:30.290Z,29.17
2017-12-20T19:35:57.819Z,27.25
2017-12-20T19:38:25.417Z,30.23
2017-12-20T19:40:56.930Z,30.88
2017-12-20T19:43:25.194Z,35.35
2017-12-20T19:45:53.811Z,41.22
2017-12-20T19:48:22.126Z,43.28
2017-12-20T19:50:49.623Z,43.60
2017-12-20T19:53:17.896Z,37.75
2017-12-20T19:55:46.147Z,32.80
2017-12-20T19:58:13.646Z,33.28
2017-12-20T20:00:41.158Z,38.53
2017-12-20T20:03:08.652Z,33.33
2017-12-20T20:05:37.834Z,36.75
2017-12-20T20:08:06.246Z,41.90
2017-12-20T20:10:33.758Z,39.58
2017-12-20T20:13:01.473Z,36.45
2017-12-20T20:15:28.978Z,41.35
2017-12-20T20:17:56.474Z,47.53
2017-12-20T20:20:25.639Z,37.67
2017-12-20T20:22:55.672Z,41.78
2017-12-20T20:25:23.162Z,50.65
2017-12-20T20:27:51.171Z,49.17
2017-12-20T20:30:18.678Z,42.60
2017-12-20T20:32:46.164Z,45.70
2017-12-20T20:35:14.455Z,42.25
2017-12-20T20:37:41.970Z,46.20
2017-12-20T20:40:10.250Z,43.10
2017-12-20T20:42:37.775Z,40.70
2017-12-20T20:45:05.270Z,41.60
2017-12-20T20:47:32.774Z,41.45
2017-12-20T20:50:00.259Z,40.65
2017-12-20T20:52:28.569Z,49.30
2017-12-20T20:54:56.066Z,47.67
2017-12-20T20:57:23.554Z,47.15
2017-12-20T20:59:51.086Z,54.72
2017-12-20T21:02:18.570Z,40.60
2017-12-20T21:04:46.066Z,54.25
2017-12-20T21:07:13.588Z,57.78
2017-12-20T21:09:41.958Z,51.70
2017-12-20T21:12:09.459Z,45.45
2017-12-20T21:14:36.981Z,54.80
2017-12-20T21:17:05.162Z,51.08
2017-12-20T21:19:32.758Z,54.05
2017-12-20T21:22:01.078Z,56.85
2017-12-20T21:24:28.566Z,49.67
2017-12-20T21:26:56.822Z,54.88
2017-12-20T21:29:24.332Z,54.65
2017-12-20T21:31:52.450Z,47.70
2017-12-20T21:34:20.150Z,65.37
2017-12-20T21:36:48.507Z,51.13
2017-12-20T21:39:15.994Z,56.37
2017-12-20T21:41:43.490Z,52.97
2017-12-20T21:44:10.994Z,58.40
2017-12-20T21:46:39.246Z,53.83
2017-12-20T21:49:07.526Z,58.85
2017-12-20T21:51:35.026Z,58.30
2017-12-20T21:54:02.519Z,61.95
2017-12-20T21:56:29.998Z,71.12
2017-12-20T21:58:57.582Z,53.87
2017-12-20T22:01:25.374Z,61.45
2017-12-20T22:03:52.860Z,60.63
2017-12-20T22:06:22.052Z,57.92
2017-12-20T22:08:50.482Z,56.92
2017-12-20T22:11:17.966Z,53.17
2017-12-20T22:13:45.479Z,56.40
2017-12-20T22:16:12.974Z,53.40
2017-12-20T22:18:41.226Z,54.63
2017-12-20T22:21:09.773Z,67.35
2017-12-20T22:23:37.613Z,55.97
2017-12-20T22:26:05.097Z,67.80
2017-12-20T22:28:32.622Z,67.72
2017-12-20T22:31:00.130Z,68.87
2017-12-20T22:33:27.837Z,61.67
2017-12-20T22:35:57.546Z,67.03
2017-12-20T22:38:25.804Z,60.67
2017-12-20T22:40:54.222Z,47.58
2017-12-20T22:43:21.738Z,56.35
2017-12-20T22:45:50.145Z,64.82
2017-12-20T22:48:18.134Z,57.55
2017-12-20T22:50:45.939Z,60.53
2017-12-20T22:53:13.422Z,72.65
2017-12-20T22:55:41.683Z,71.40
2017-12-20T22:58:09.218Z,74.70
2017-12-20T23:00:37.323Z,75.45
2017-12-20T23:03:05.715Z,78.47
2017-12-20T23:05:33.997Z,69.87
2017-12-20T23:08:01.478Z,78.90
2017-12-20T23:10:28.962Z,87.88
2017-12-20T23:12:57.170Z,90.03
2017-12-20T23:15:26.198Z,83.95
2017-12-20T23:17:54.154Z,87.50
2017-12-20T23:20:22.434Z,92.80
2017-12-20T23:22:50.686Z,85.18
2017-12-20T23:25:18.178Z,77.10
2017-12-20T23:27:45.706Z,82.78
2017-12-20T23:30:13.434Z,82.57
2017-12-20T23:32:40.914Z,73.28
2017-12-20T23:35:08.431Z,77.43
2017-12-20T23:37:35.922Z,74.32
2017-12-20T23:40:03.426Z,91.20
2017-12-20T23:42:31.702Z,85.25
2017-12-20T23:44:59.188Z,92.60
2017-12-20T23:47:26.674Z,85.53
2017-12-20T23:49:54.178Z,78.65
2017-12-20T23:52:22.454Z,88.07
2017-12-20T23:54:50.709Z,89.35
2017-12-20T23:57:18.210Z,92.05
2017-12-20T23:59:46.314Z,86.57
